createdAt,value
2022-08-14T00:02:33.926Z,59.80
2022-08-14T00:05:26.037Z,59.90
2022-08-14T00:08:15.811Z,59.90
2022-08-14T00:11:25.210Z,60.00
2022-08-14T00:14:18.374Z,60.00
2022-08-14T00:17:08.022Z,60.10
2022-08-14T00:19:59.888Z,60.20
2022-08-14T00:22:57.665Z,60.40
2022-08-14T00:25:58.897Z,60.40
2022-08-14T00:28:56.318Z,60.60
2022-08-14T00:31:46.997Z,60.60
2022-08-14T00:34:46.768Z,60.80
2022-08-14T00:37:40.510Z,60.70
2022-08-14T00:40:35.348Z,61.00
2022-08-14T00:43:25.150Z,60.80
2022-08-14T00:46:32.520Z,60.90
2022-08-14T00:49:23.186Z,61.10
2022-08-14T00:52:17.695Z,61.10
2022-08-14T00:55:10.549Z,61.20
2022-08-14T00:58:27.844Z,61.60
2022-08-14T01:01:22.547Z,61.50
2022-08-14T01:04:38.360Z,61.60
2022-08-14T01:07:23.617Z,61.80
2022-08-14T01:10:14.493Z,61.90
2022-08-14T01:13:05.588Z,61.90
2022-08-14T01:16:02.636Z,62.00
2022-08-14T01:19:10.067Z,62.10
2022-08-14T01:22:02.989Z,62.10
2022-08-14T01:24:53.266Z,62.20
2022-08-14T01:27:57.106Z,62.30
2022-08-14T01:30:47.284Z,62.50
2022-08-14T01:33:59.271Z,62.50
2022-08-14T01:36:49.864Z,62.80
2022-08-14T01:39:40.770Z,62.80
2022-08-14T01:42:32.102Z,63.20
2022-08-14T01:45:25.833Z,63.30
2022-08-14T01:48:16.148Z,63.30
2022-08-14T01:51:20.257Z,63.60
2022-08-14T01:54:14.678Z,63.70
2022-08-14T01:57:11.572Z,63.90
2022-08-14T02:00:00.988Z,64.10
2022-08-14T02:03:12.902Z,64.00
2022-08-14T02:06:32.236Z,63.80
2022-08-14T02:09:22.261Z,64.10
2022-08-14T02:12:19.613Z,64.20
2022-08-14T02:15:21.777Z,64.40
2022-08-14T02:18:11.907Z,64.40
2022-08-14T02:21:04.961Z,64.30
2022-08-14T02:23:57.132Z,64.40
2022-08-14T02:26:58.419Z,64.40
2022-08-14T02:30:01.126Z,64.30
2022-08-14T02:32:51.835Z,64.70
2022-08-14T02:35:42.680Z,64.80
2022-08-14T02:38:34.330Z,65.00
2022-08-14T02:41:28.484Z,64.90
2022-08-14T02:44:29.538Z,65.20
2022-08-14T02:47:21.367Z,65.20
2022-08-14T02:50:11.388Z,65.40
2022-08-14T02:53:02.879Z,65.40
2022-08-14T02:55:53.899Z,65.70
2022-08-14T02:58:48.195Z,65.90
2022-08-14T03:01:50.581Z,66.20
2022-08-14T03:04:45.401Z,66.20
2022-08-14T03:07:34.791Z,66.30
2022-08-14T03:10:32.334Z,66.30
2022-08-14T03:13:23.444Z,66.40
2022-08-14T03:16:20.345Z,66.60
2022-08-14T03:19:16.124Z,67.10
2022-08-14T03:22:17.806Z,67.00
2022-08-14T03:25:10.032Z,67.20
2022-08-14T03:28:03.746Z,67.30
2022-08-14T03:30:54.781Z,67.40
2022-08-14T03:33:44.958Z,67.70
2022-08-14T03:37:50.734Z,67.90
2022-08-14T03:39:54.421Z,68.10
2022-08-14T03:42:44.166Z,68.30
2022-08-14T03:45:36.664Z,68.30
2022-08-14T03:48:31.515Z,68.50
2022-08-14T03:51:29.887Z,68.60
2022-08-14T03:54:20.717Z,68.60
2022-08-14T03:57:11.648Z,68.60
2022-08-14T04:00:03.057Z,69.00
2022-08-14T04:03:18.229Z,68.90
2022-08-14T04:06:12.350Z,68.90
2022-08-14T04:09:10.744Z,69.00
2022-08-14T04:12:00.132Z,69.10
2022-08-14T04:14:53.258Z,69.10
2022-08-14T04:17:43.672Z,69.60
2022-08-14T04:20:35.981Z,69.80
2022-08-14T04:23:42.726Z,70.10
2022-08-14T04:26:41.989Z,70.40
2022-08-14T04:29:32.894Z,70.60
2022-08-14T04:32:58.391Z,70.90
2022-08-14T04:35:56.789Z,71.20
2022-08-14T04:39:03.154Z,71.90
2022-08-14T04:42:18.565Z,72.40
2022-08-14T04:45:08.927Z,74.10
2022-08-14T04:48:39.086Z,75.40
2022-08-14T04:51:25.954Z,74.90
2022-08-14T04:54:17.259Z,74.10
2022-08-14T04:57:07.041Z,73.50
2022-08-14T05:00:00.556Z,73.10
2022-08-14T05:02:50.674Z,72.80
2022-08-14T05:05:41.458Z,72.90
2022-08-14T05:08:56.618Z,73.20
2022-08-14T05:11:44.096Z,73.80
2022-08-14T05:14:46.258Z,74.60
2022-08-14T05:17:58.750Z,75.80
2022-08-14T05:21:58.151Z,77.30
2022-08-14T05:24:17.818Z,79.10
2022-08-14T05:27:09.555Z,80.20
2022-08-14T05:29:59.059Z,80.80
2022-08-14T05:32:48.684Z,80.70
2022-08-14T05:35:38.173Z,80.00
2022-08-14T05:38:36.905Z,79.10
2022-08-14T05:41:51.014Z,78.30
2022-08-14T05:44:35.680Z,78.50
2022-08-14T05:47:28.715Z,78.40
2022-08-14T05:50:23.680Z,77.90
2022-08-14T05:53:13.128Z,77.40
2022-08-14T05:56:06.223Z,76.60
2022-08-14T05:58:56.205Z,75.10
2022-08-14T06:01:45.635Z,74.30
2022-08-14T06:04:36.176Z,73.10
2022-08-14T06:07:25.771Z,72.20
2022-08-14T06:10:15.718Z,71.20
2022-08-14T06:13:09.984Z,70.20
2022-08-14T06:16:01.211Z,68.60
2022-08-14T06:18:52.998Z,67.50
2022-08-14T06:21:42.589Z,67.00
2022-08-14T06:24:34.763Z,66.60
2022-08-14T06:27:25.107Z,66.50
2022-08-14T06:30:30.093Z,66.40
2022-08-14T06:35:04.168Z,65.80
2022-08-14T06:36:40.985Z,65.40
2022-08-14T06:39:36.968Z,64.10
2022-08-14T06:42:32.871Z,62.80
2022-08-14T06:45:26.067Z,61.60
2022-08-14T06:48:17.488Z,60.90
2022-08-14T06:51:06.975Z,59.90
2022-08-14T06:53:57.079Z,59.70
2022-08-14T06:56:54.469Z,59.70
2022-08-14T06:59:46.491Z,59.30
2022-08-14T07:02:54.911Z,58.60
2022-08-14T07:05:55.382Z,57.80
2022-08-14T07:08:46.196Z,57.50
2022-08-14T07:11:37.660Z,57.80
2022-08-14T07:14:27.161Z,58.40
2022-08-14T07:17:16.605Z,59.00
2022-08-14T07:20:09.804Z,59.70
2022-08-14T07:23:09.184Z,59.80
2022-08-14T07:26:03.554Z,60.40
2022-08-14T07:28:53.539Z,60.40
2022-08-14T07:31:44.187Z,59.80
2022-08-14T07:34:40.827Z,59.00
2022-08-14T07:37:32.182Z,58.10
2022-08-14T07:40:27.760Z,57.70
2022-08-14T07:43:19.619Z,57.20
2022-08-14T07:46:11.040Z,56.80
2022-08-14T07:49:01.808Z,57.00
2022-08-14T07:51:52.504Z,56.90
2022-08-14T07:54:44.922Z,57.00
2022-08-14T07:57:35.875Z,56.70
2022-08-14T08:00:31.648Z,57.00
2022-08-14T08:03:25.149Z,56.80
2022-08-14T08:06:18.462Z,57.50
2022-08-14T08:09:11.181Z,57.70
2022-08-14T08:12:05.045Z,57.50
2022-08-14T08:14:56.842Z,56.90
2022-08-14T08:17:53.488Z,56.20
2022-08-14T08:20:53.477Z,55.50
2022-08-14T08:23:51.030Z,54.30
2022-08-14T08:26:40.902Z,53.10
2022-08-14T08:29:33.186Z,52.50
2022-08-14T08:32:29.946Z,52.10
2022-08-14T08:35:21.733Z,52.20
2022-08-14T08:39:17.145Z,51.40
2022-08-14T08:41:24.410Z,50.50
2022-08-14T08:44:31.130Z,50.10
2022-08-14T08:47:24.004Z,49.30
2022-08-14T08:53:19.939Z,45.40
2022-08-14T08:56:09.373Z,45.40
2022-08-14T08:58:59.551Z,44.80
2022-08-14T09:01:56.374Z,44.40
2022-08-14T09:04:53.240Z,43.70
2022-08-14T09:07:43.195Z,43.30
2022-08-14T09:10:32.630Z,43.50
2022-08-14T09:13:26.235Z,42.60
2022-08-14T09:16:19.206Z,42.40
2022-08-14T09:19:09.899Z,41.80
2022-08-14T09:22:01.347Z,41.70
2022-08-14T09:25:11.570Z,40.90
2022-08-14T09:28:05.454Z,41.20
2022-08-14T09:30:57.929Z,40.80
2022-08-14T09:34:09.220Z,40.90
2022-08-14T09:37:40.955Z,40.40
2022-08-14T09:40:44.276Z,40.50
2022-08-14T09:43:49.747Z,40.20
2022-08-14T09:46:40.503Z,40.50
2022-08-14T09:49:42.408Z,39.70
2022-08-14T09:52:34.522Z,39.30
2022-08-14T09:55:26.163Z,38.20
2022-08-14T09:58:22.734Z,38.30
2022-08-14T10:01:15.180Z,38.70
2022-08-14T10:04:33.549Z,38.60
2022-08-14T10:07:33.913Z,38.20
2022-08-14T10:10:34.479Z,38.20
2022-08-14T10:13:26.277Z,37.50
2022-08-14T10:16:21.972Z,38.20
2022-08-14T10:19:20.498Z,38.00
2022-08-14T10:23:13.415Z,37.00
2022-08-14T10:25:22.942Z,36.70
2022-08-14T10:28:51.499Z,37.00
2022-08-14T10:31:29.579Z,36.80
2022-08-14T10:34:36.666Z,36.80
2022-08-14T10:37:27.965Z,36.80
2022-08-14T10:40:38.777Z,37.20
2022-08-14T10:43:33.886Z,37.30
2022-08-14T10:47:40.419Z,37.10
2022-08-14T10:49:35.875Z,37.00
2022-08-14T10:52:29.911Z,36.90
2022-08-14T10:55:20.938Z,36.90
2022-08-14T10:58:12.448Z,37.00
2022-08-14T11:01:08.115Z,36.70
2022-08-14T11:03:57.834Z,36.80
2022-08-14T11:06:54.129Z,37.10
2022-08-14T11:09:55.724Z,36.50
2022-08-14T11:12:49.047Z,36.30
2022-08-14T11:15:41.010Z,36.30
2022-08-14T11:18:36.320Z,35.80
2022-08-14T11:21:34.120Z,35.90
2022-08-14T11:24:54.213Z,35.60
2022-08-14T11:27:41.628Z,35.70
2022-08-14T11:30:50.781Z,35.50
2022-08-14T11:33:43.320Z,35.50
2022-08-14T11:36:57.072Z,35.60
2022-08-14T11:39:42.380Z,35.80
2022-08-14T11:43:06.145Z,36.20
2022-08-14T11:45:49.600Z,36.40
2022-08-14T11:49:02.358Z,36.60
2022-08-14T11:51:55.498Z,36.90
2022-08-14T11:55:00.534Z,36.90
2022-08-14T11:58:03.644Z,36.90
2022-08-14T12:00:58.751Z,36.90
2022-08-14T12:03:51.969Z,37.00
2022-08-14T12:06:51.612Z,37.00
2022-08-14T12:09:43.091Z,36.80
2022-08-14T12:12:35.619Z,36.90
2022-08-14T12:15:37.932Z,37.00
2022-08-14T12:18:36.659Z,37.00
2022-08-14T12:21:29.562Z,37.00
2022-08-14T12:24:35.996Z,37.20
2022-08-14T12:27:41.467Z,37.30
2022-08-14T12:30:42.389Z,37.40
2022-08-14T12:33:34.477Z,37.50
2022-08-14T12:36:24.038Z,37.50
2022-08-14T12:39:24.665Z,37.70
2022-08-14T12:42:34.578Z,37.80
2022-08-14T12:45:34.433Z,37.90
2022-08-14T12:48:32.351Z,38.00
2022-08-14T12:51:27.169Z,37.90
2022-08-14T12:54:27.174Z,37.80
2022-08-14T12:57:20.609Z,37.70
2022-08-14T13:00:23.145Z,37.70
2022-08-14T13:03:27.002Z,37.80
2022-08-14T13:06:17.817Z,38.10
2022-08-14T13:09:11.588Z,38.10
2022-08-14T13:12:32.166Z,38.10
2022-08-14T13:15:17.813Z,38.20
2022-08-14T13:18:12.325Z,38.30
2022-08-14T13:21:05.589Z,38.30
2022-08-14T13:23:57.043Z,38.30
2022-08-14T13:26:51.382Z,38.30
2022-08-14T13:29:47.198Z,38.50
2022-08-14T13:32:40.560Z,38.50
2022-08-14T13:35:29.958Z,38.60
2022-08-14T13:38:22.220Z,38.70
2022-08-14T13:41:12.372Z,38.90
2022-08-14T13:44:02.120Z,38.90
2022-08-14T13:46:51.552Z,38.80
2022-08-14T13:49:58.043Z,38.80
2022-08-14T13:52:59.334Z,38.60
2022-08-14T13:55:52.075Z,38.40
2022-08-14T13:58:46.880Z,38.30
2022-08-14T14:01:43.458Z,38.30
2022-08-14T14:04:34.380Z,39.00
2022-08-14T14:07:26.137Z,38.30
2022-08-14T14:10:28.153Z,38.30
2022-08-14T14:13:20.186Z,38.30
2022-08-14T14:16:11.782Z,38.40
2022-08-14T14:19:09.703Z,38.50
2022-08-14T14:22:01.507Z,38.50
2022-08-14T14:24:54.622Z,38.70
2022-08-14T14:27:45.562Z,38.80
2022-08-14T14:30:52.713Z,38.90
2022-08-14T14:33:49.003Z,39.00
2022-08-14T14:36:41.513Z,39.20
2022-08-14T14:39:37.962Z,39.30
2022-08-14T14:42:53.212Z,39.30
2022-08-14T14:45:46.895Z,39.40
2022-08-14T14:48:46.730Z,39.50
2022-08-14T14:51:51.153Z,39.60
2022-08-14T14:54:43.267Z,39.80
2022-08-14T14:57:35.212Z,40.00
2022-08-14T15:00:30.921Z,40.10
2022-08-14T15:03:20.943Z,40.30
2022-08-14T15:06:10.621Z,40.40
2022-08-14T15:09:04.843Z,40.60
2022-08-14T15:11:58.708Z,40.70
2022-08-14T15:14:54.920Z,40.70
2022-08-14T15:17:59.025Z,40.80
2022-08-14T15:20:48.554Z,40.90
2022-08-14T15:23:44.526Z,40.90
2022-08-14T15:26:35.621Z,41.10
2022-08-14T15:29:25.201Z,41.10
2022-08-14T15:32:14.637Z,41.20
2022-08-14T15:35:09.314Z,41.10
2022-08-14T15:38:08.048Z,41.20
2022-08-14T15:40:57.832Z,41.30
2022-08-14T15:43:47.215Z,41.30
2022-08-14T15:46:43.542Z,41.20
2022-08-14T15:49:35.291Z,41.20
2022-08-14T15:52:33.092Z,41.20
2022-08-14T15:55:24.586Z,41.20
2022-08-14T15:58:14.528Z,41.10
2022-08-14T16:01:50.785Z,41.00
2022-08-14T16:04:33.082Z,41.00
2022-08-14T16:07:25.153Z,41.00
2022-08-14T16:10:29.029Z,41.10
2022-08-14T16:13:39.871Z,41.20
2022-08-14T16:16:50.547Z,41.20
2022-08-14T16:19:47.545Z,41.20
2022-08-14T16:22:57.408Z,41.10
2022-08-14T16:25:49.089Z,41.10
2022-08-14T16:28:42.903Z,41.20
2022-08-14T16:31:36.329Z,41.30
2022-08-14T16:34:46.346Z,41.30
2022-08-14T16:37:41.351Z,41.40
2022-08-14T16:40:33.120Z,41.40
2022-08-14T16:43:26.789Z,41.40
2022-08-14T16:46:22.469Z,41.50
2022-08-14T16:49:16.337Z,41.60
2022-08-14T16:52:25.747Z,41.60
2022-08-14T16:55:22.476Z,41.80
2022-08-14T16:58:29.598Z,41.80
2022-08-14T17:01:24.434Z,42.20
2022-08-14T17:04:24.952Z,42.20
2022-08-14T17:07:16.090Z,42.30
2022-08-14T17:10:09.420Z,42.40
2022-08-14T17:13:18.215Z,42.60
2022-08-14T17:16:23.963Z,43.10
2022-08-14T17:19:19.425Z,43.00
2022-08-14T17:22:12.359Z,43.00
2022-08-14T17:25:03.945Z,43.20
2022-08-14T17:28:51.944Z,43.30
2022-08-14T17:31:57.723Z,43.80
2022-08-14T17:34:49.661Z,43.70
2022-08-14T17:37:45.254Z,43.60
2022-08-14T17:40:34.824Z,43.60
2022-08-14T17:43:41.982Z,43.70
2022-08-14T17:46:43.545Z,44.00
2022-08-14T17:49:40.450Z,43.90
2022-08-14T17:52:40.789Z,43.80
2022-08-14T17:56:03.408Z,44.10
2022-08-14T17:58:42.850Z,43.90
2022-08-14T18:01:35.918Z,43.90
2022-08-14T18:04:29.071Z,44.00
2022-08-14T18:07:59.970Z,44.20
2022-08-14T18:10:55.480Z,44.30
2022-08-14T18:13:51.014Z,44.40
2022-08-14T18:16:43.850Z,44.50
2022-08-14T18:19:41.597Z,44.60
2022-08-14T18:22:37.801Z,44.70
2022-08-14T18:25:34.380Z,44.80
2022-08-14T18:28:48.476Z,45.00
2022-08-14T18:31:43.869Z,45.10
2022-08-14T18:34:50.762Z,45.00
2022-08-14T18:37:42.344Z,45.40
2022-08-14T18:40:45.698Z,45.30
2022-08-14T18:43:44.717Z,45.60
2022-08-14T18:47:21.146Z,46.10
2022-08-14T18:50:26.946Z,46.50
2022-08-14T18:53:24.759Z,46.10
2022-08-14T18:56:18.372Z,46.10
2022-08-14T18:59:35.836Z,46.30
2022-08-14T19:02:44.522Z,47.10
2022-08-14T19:06:01.173Z,47.20
2022-08-14T19:08:52.505Z,47.30
2022-08-14T19:11:50.311Z,46.90
2022-08-14T19:14:51.160Z,48.00
2022-08-14T19:18:05.002Z,47.70
2022-08-14T19:20:59.021Z,47.30
2022-08-14T19:24:27.155Z,47.50
2022-08-14T19:27:24.242Z,48.40
2022-08-14T19:30:25.726Z,47.80
2022-08-14T19:33:52.815Z,48.50
2022-08-14T19:37:05.030Z,48.80
2022-08-14T19:39:57.708Z,48.20
2022-08-14T19:42:50.362Z,48.20
2022-08-14T19:45:40.431Z,48.20
2022-08-14T19:48:29.957Z,48.40
2022-08-14T19:51:19.907Z,48.60
2022-08-14T19:54:13.555Z,48.70
2022-08-14T19:57:06.186Z,48.70
2022-08-14T20:00:05.909Z,48.90
2022-08-14T20:03:18.595Z,49.20
2022-08-14T20:06:09.129Z,49.00
2022-08-14T20:10:59.682Z,49.10
2022-08-14T20:12:34.750Z,49.20
2022-08-14T20:15:46.653Z,49.60
2022-08-14T20:18:49.127Z,49.50
2022-08-14T20:21:58.447Z,49.40
2022-08-14T20:24:50.095Z,49.50
2022-08-14T20:27:49.840Z,49.50
2022-08-14T20:30:53.708Z,49.60
2022-08-14T20:34:03.470Z,49.80
2022-08-14T20:37:04.210Z,50.30
2022-08-14T20:39:55.659Z,50.20
2022-08-14T20:43:08.513Z,49.90
2022-08-14T20:45:59.241Z,50.40
2022-08-14T20:49:01.207Z,50.20
2022-08-14T20:51:59.419Z,50.70
2022-08-14T20:54:51.712Z,50.30
2022-08-14T20:57:43.764Z,50.30
2022-08-14T21:00:52.275Z,50.40
2022-08-14T21:03:57.305Z,50.50
2022-08-14T21:07:23.414Z,50.80
2022-08-14T21:10:36.351Z,50.60
2022-08-14T21:13:27.509Z,50.90
2022-08-14T21:16:35.157Z,50.70
2022-08-14T21:19:28.985Z,51.40
2022-08-14T21:22:19.747Z,50.90
2022-08-14T21:25:11.076Z,51.10
2022-08-14T21:28:04.195Z,51.10
2022-08-14T21:30:55.152Z,51.10
2022-08-14T21:33:46.922Z,51.20
2022-08-14T21:36:51.684Z,51.30
2022-08-14T21:39:41.026Z,51.60
2022-08-14T21:42:30.897Z,51.50
2022-08-14T21:45:20.819Z,51.40
2022-08-14T21:48:12.385Z,51.60
2022-08-14T21:51:54.539Z,51.70
2022-08-14T21:54:30.410Z,51.70
2022-08-14T21:57:56.323Z,51.80
2022-08-14T22:00:42.595Z,51.90
2022-08-14T22:03:35.057Z,52.00
2022-08-14T22:06:28.643Z,52.20
2022-08-14T22:09:24.599Z,52.30
2022-08-14T22:12:47.367Z,52.50
2022-08-14T22:15:38.595Z,52.50
2022-08-14T22:18:34.412Z,52.50
2022-08-14T22:21:26.174Z,52.60
2022-08-14T22:24:37.691Z,52.60
2022-08-14T22:27:29.516Z,52.80
2022-08-14T22:30:21.009Z,52.90
2022-08-14T22:33:13.289Z,53.00
2022-08-14T22:36:26.193Z,52.90
2022-08-14T22:39:16.679Z,53.10
2022-08-14T22:42:21.423Z,53.10
2022-08-14T22:45:14.463Z,53.20
2022-08-14T22:48:10.900Z,53.20
2022-08-14T22:51:01.265Z,53.20
2022-08-14T22:53:54.080Z,53.30
2022-08-14T22:56:43.494Z,53.40
2022-08-14T22:59:36.810Z,53.40
2022-08-14T23:02:32.886Z,53.50
2022-08-14T23:05:39.084Z,53.50
2022-08-14T23:09:01.881Z,53.50
2022-08-14T23:11:39.290Z,54.10
2022-08-14T23:14:30.671Z,53.60
2022-08-14T23:17:20.245Z,53.60
2022-08-14T23:20:23.312Z,53.60
2022-08-14T23:23:22.701Z,54.00
2022-08-14T23:26:49.301Z,53.60
2022-08-14T23:29:22.598Z,53.80
2022-08-14T23:32:19.019Z,53.80
2022-08-14T23:35:10.096Z,54.00
2022-08-14T23:38:02.884Z,54.00
2022-08-14T23:40:52.318Z,54.10
2022-08-14T23:43:44.099Z,54.10
2022-08-14T23:46:34.639Z,54.80
2022-08-14T23:49:24.650Z,54.20
2022-08-14T23:52:55.558Z,54.20
2022-08-14T23:55:26.335Z,54.30
2022-08-14T23:58:29.872Z,54.40
